Time;durP1;ratioP1;P1;durP2;ratioP2;P2;SDS_P1;SDS_P2;PMS_P1;PMS_P2;Temp;Humidity;BMP_temperature;BMP_pressure;BME280_temperature;BME280_humidity;BME280_pressure;Samples;Min_cycle;Max_cycle;Signal;HPM_P1;HPM_P2
2023/09/12 00:00:18;;;;;;;;;;;;;;;25.43;50.52;99906.38;5097003;28;19997;-66
2023/09/12 00:02:43;;;;;;;;;;;;;;;25.49;50.83;99915.31;5097029;28;20006;-66
2023/09/12 00:05:09;;;;;;;;;;;;;;;25.55;50.45;99916.03;5096784;28;19948;-66
2023/09/12 00:07:35;;;;;;;;;;;;;;;25.57;50.54;99917.34;5097016;28;19927;-66
2023/09/12 00:10:00;;;;;;;;;;;;;;;25.60;50.36;99915.94;5097164;28;19912;-66
2023/09/12 00:12:25;;;;;;;;;;;;;;;25.53;50.17;99913.59;5096845;28;20376;-66
2023/09/12 00:14:51;;;;;;;;;;;;;;;25.37;50.32;99920.50;5097092;28;20280;-66
2023/09/12 00:17:16;;;;;;;;;;;;;;;25.39;50.88;99908.13;5096818;28;19916;-66
2023/09/12 00:19:42;;;;;;;;;;;;;;;25.48;50.40;99906.28;5096644;28;19973;-66
2023/09/12 00:22:07;;;;;;;;;;;;;;;25.38;50.66;99905.66;5096524;28;19919;-66
2023/09/12 00:24:33;;;;;;;;;;;;;;;25.41;50.98;99908.63;5096553;28;19912;-66
2023/09/12 00:26:58;;;;;;;;;;;;;;;25.43;50.64;99909.13;5096437;28;19958;-65
2023/09/12 00:29:23;;;;;;;;;;;;;;;25.46;50.48;99903.03;5096467;28;20016;-66
2023/09/12 00:31:48;;;;;;;;;;;;;;;25.56;50.29;99909.44;5096422;28;20261;-66
2023/09/12 00:34:17;;;;;;;;;;;;;;;25.49;50.32;99909.81;5096568;28;19934;-66
2023/09/12 00:36:42;;;;;;;;;;;;;;;25.52;50.10;99898.22;5096523;28;19916;-66
2023/09/12 00:39:08;;;;;;;;;;;;;;;25.50;50.53;99906.78;5096476;28;20116;-66
2023/09/12 00:41:33;;;;;;;;;;;;;;;25.56;50.32;99901.97;5096607;28;19920;-66
2023/09/12 00:43:58;;;;;;;;;;;;;;;25.59;50.31;99906.84;5096354;28;19914;-65
2023/09/12 00:46:24;;;;;;;;;;;;;;;25.45;50.26;99900.56;5096512;28;19961;-66
2023/09/12 00:48:50;;;;;;;;;;;;;;;25.43;50.34;99906.38;5096585;28;19917;-66
2023/09/12 00:51:16;;;;;;;;;;;;;;;25.54;49.99;99906.97;5096177;28;20376;-66
2023/09/12 00:53:42;;;;;;;;;;;;;;;25.42;50.32;99907.47;5094813;28;19912;-66
2023/09/12 00:56:07;;;;;;;;;;;;;;;25.40;50.30;99911.66;5096196;28;20415;-66
2023/09/12 00:58:33;;;;;;;;;;;;;;;25.43;50.04;99913.81;5096238;28;19964;-66
2023/09/12 01:00:58;;;;;;;;;;;;;;;25.31;50.57;99903.31;5096465;28;19922;-66
2023/09/12 01:03:24;;;;;;;;;;;;;;;25.32;50.40;99895.91;5095991;28;20261;-66
2023/09/12 01:05:49;;;;;;;;;;;;;;;25.37;50.49;99898.53;5095526;28;19987;-66
2023/09/12 01:08:14;;;;;;;;;;;;;;;25.41;50.33;99903.13;5097396;28;20393;-66
2023/09/12 01:10:40;;;;;;;;;;;;;;;25.45;50.11;99901.38;5097010;28;19923;-66
2023/09/12 01:13:05;;;;;;;;;;;;;;;25.17;51.26;99888.75;5098474;28;19944;-66
2023/09/12 01:15:30;;;;;;;;;;;;;;;25.08;51.25;99913.38;5098324;28;19919;-66
2023/09/12 01:17:56;;;;;;;;;;;;;;;25.06;50.80;99899.94;5098330;28;19928;-66
2023/09/12 01:20:30;;;;;;;;;;;;;;;25.27;50.61;99888.56;5099881;28;19944;-65
2023/09/12 01:23:01;;;;;;;;;;;;;;;25.27;50.18;99896.81;5098207;28;19926;-65
2023/09/12 01:25:26;;;;;;;;;;;;;;;25.24;50.83;99895.50;5095549;28;19998;-65
2023/09/12 01:27:52;;;;;;;;;;;;;;;25.31;50.41;99897.81;5095738;28;19947;-66
2023/09/12 01:30:18;;;;;;;;;;;;;;;25.36;50.38;99902.41;5095925;28;19912;-66
2023/09/12 01:32:43;;;;;;;;;;;;;;;25.36;50.00;99902.41;5095184;28;19943;-66
2023/09/12 01:35:09;;;;;;;;;;;;;;;25.29;50.28;99898.13;5095154;28;19944;-66
2023/09/12 01:37:34;;;;;;;;;;;;;;;25.30;50.31;99899.75;5095542;28;19937;-66
2023/09/12 01:40:00;;;;;;;;;;;;;;;25.47;49.68;99901.88;5095195;28;19912;-66
2023/09/12 01:42:30;;;;;;;;;;;;;;;25.45;49.82;99901.38;5095087;28;19991;-66
2023/09/12 01:44:56;;;;;;;;;;;;;;;25.58;49.54;99907.19;5095087;28;19922;-66
2023/09/12 01:47:22;;;;;;;;;;;;;;;25.60;49.47;99910.44;5095131;28;19916;-66
2023/09/12 01:49:49;;;;;;;;;;;;;;;25.58;49.43;99905.22;5095002;28;19991;-66
2023/09/12 01:52:15;;;;;;;;;;;;;;;25.56;49.31;99904.72;5094568;28;19918;-66
2023/09/12 01:54:42;;;;;;;;;;;;;;;25.60;49.32;99903.00;5094221;28;19922;-66
2023/09/12 01:57:08;;;;;;;;;;;;;;;25.58;49.46;99901.69;5094941;28;19912;-66
2023/09/12 01:59:33;;;;;;;;;;;;;;;25.54;49.37;99911.63;5094635;28;19919;-66
2023/09/12 02:01:58;;;;;;;;;;;;;;;25.44;49.22;99904.44;5094505;28;19918;-66
2023/09/12 02:04:24;;;;;;;;;;;;;;;25.49;49.16;99904.31;5094379;28;19951;-66
2023/09/12 02:06:49;;;;;;;;;;;;;;;25.66;48.74;99901.75;5094682;28;19916;-65
2023/09/12 02:09:14;;;;;;;;;;;;;;;25.47;48.93;99912.88;5094544;28;20386;-66
2023/09/12 02:11:40;;;;;;;;;;;;;;;25.50;49.11;99903.19;5094661;28;20288;-66
2023/09/12 02:14:05;;;;;;;;;;;;;;;25.47;48.68;99898.31;5094519;28;19923;-65
2023/09/12 02:16:31;;;;;;;;;;;;;;;25.54;48.62;99895.16;5094303;28;19958;-65
2023/09/12 02:18:57;;;;;;;;;;;;;;;25.57;48.79;99895.34;5094358;28;19927;-66
2023/09/12 02:21:22;;;;;;;;;;;;;;;25.59;48.68;99897.78;5094249;28;19913;-66
2023/09/12 02:23:47;;;;;;;;;;;;;;;25.61;48.30;99898.28;5094405;28;19912;-66
2023/09/12 02:26:13;;;;;;;;;;;;;;;25.65;48.22;99889.13;5094466;28;20347;-66
2023/09/12 02:28:38;;;;;;;;;;;;;;;25.56;48.42;99896.47;5094402;28;20272;-66
2023/09/12 02:31:03;;;;;;;;;;;;;;;25.56;48.29;99901.19;5094073;28;19998;-66
2023/09/12 02:33:28;;;;;;;;;;;;;;;25.67;48.00;99892.38;5093150;28;19912;-66
2023/09/12 02:35:54;;;;;;;;;;;;;;;25.72;47.98;99888.69;5094153;28;20383;-66
2023/09/12 02:38:19;;;;;;;;;;;;;;;25.81;47.78;99892.34;5094116;28;19994;-66
2023/09/12 02:40:44;;;;;;;;;;;;;;;25.82;47.75;99887.66;5092713;28;19916;-66
2023/09/12 02:43:09;;;;;;;;;;;;;;;25.81;47.65;99892.34;5093839;28;19919;-66
2023/09/12 02:45:35;;;;;;;;;;;;;;;25.86;47.49;99894.97;5093732;28;20018;-66
2023/09/12 02:48:00;;;;;;;;;;;;;;;25.94;47.27;99889.91;5094103;28;20292;-66
2023/09/12 02:50:25;;;;;;;;;;;;;;;25.94;46.98;99898.97;5093636;28;19919;-66
2023/09/12 02:52:51;;;;;;;;;;;;;;;25.83;47.40;99895.59;5093498;28;19912;-66
2023/09/12 02:55:16;;;;;;;;;;;;;;;25.76;47.38;99905.38;5092965;28;19919;-65
2023/09/12 02:57:41;;;;;;;;;;;;;;;25.79;47.56;99904.78;5093412;28;20365;-65
2023/09/12 03:00:08;;;;;;;;;;;;;;;25.58;47.69;99907.97;5093569;28;19912;-65
2023/09/12 03:02:34;;;;;;;;;;;;;;;25.58;47.69;99898.94;5081586;28;20005;-66
2023/09/12 03:04:59;;;;;;;;;;;;;;;25.72;47.79;99909.88;5073266;28;19963;-66
2023/09/12 03:07:24;;;;;;;;;;;;;;;25.68;47.76;99906.94;5073572;28;19928;-66
2023/09/12 03:09:49;;;;;;;;;;;;;;;25.71;47.71;99913.78;5073435;28;19919;-66
2023/09/12 03:12:15;;;;;;;;;;;;;;;25.66;47.55;99918.25;5084271;28;19916;-65
2023/09/12 03:14:40;;;;;;;;;;;;;;;25.46;48.13;99918.69;5093152;28;20332;-65
2023/09/12 03:17:06;;;;;;;;;;;;;;;25.56;48.17;99915.72;5093960;28;19912;-66
2023/09/12 03:19:32;;;;;;;;;;;;;;;25.62;47.81;99921.94;5093942;28;20268;-66
2023/09/12 03:21:57;;;;;;;;;;;;;;;25.58;47.75;99916.22;5094024;28;20364;-66
2023/09/12 03:24:24;;;;;;;;;;;;;;;25.50;48.16;99923.28;5093413;28;19919;-66
2023/09/12 03:26:50;;;;;;;;;;;;;;;25.52;48.06;99922.97;5093054;28;19989;-66
2023/09/12 03:29:15;;;;;;;;;;;;;;;25.50;48.20;99926.03;5093057;28;20365;-66
2023/09/12 03:31:40;;;;;;;;;;;;;;;25.42;48.43;99931.41;5093373;28;19978;-66
2023/09/12 03:34:07;;;;;;;;;;;;;;;25.35;48.44;99918.06;5093534;28;20432;-66
2023/09/12 03:36:32;;;;;;;;;;;;;;;25.36;48.34;99919.72;5093257;28;19996;-66
2023/09/12 03:38:57;;;;;;;;;;;;;;;25.34;48.47;99916.47;5093312;28;19940;-66
2023/09/12 03:41:25;;;;;;;;;;;;;;;25.41;48.26;99918.81;5093530;28;20280;-66
2023/09/12 03:43:54;;;;;;;;;;;;;;;25.44;48.27;99918.19;5093372;28;19912;-66
2023/09/12 03:46:19;;;;;;;;;;;;;;;25.53;48.13;99901.78;5093069;28;19935;-66
2023/09/12 03:48:45;;;;;;;;;;;;;;;25.54;48.20;99898.72;5093154;28;20387;-66
2023/09/12 03:51:11;;;;;;;;;;;;;;;25.52;47.86;99914.72;5093082;28;19938;-66
2023/09/12 03:53:36;;;;;;;;;;;;;;;25.53;47.85;99904.53;5092595;28;19912;-66
2023/09/12 03:56:01;;;;;;;;;;;;;;;25.47;48.12;99904.63;5092276;28;19912;-66
2023/09/12 03:58:27;;;;;;;;;;;;;;;25.52;48.17;99898.22;5093031;28;19919;-66
2023/09/12 04:00:52;;;;;;;;;;;;;;;25.60;47.68;99897.47;5093188;28;19912;-66
2023/09/12 04:03:17;;;;;;;;;;;;;;;25.57;47.26;99898.09;5078739;28;19912;-66
2023/09/12 04:05:42;;;;;;;;;;;;;;;25.65;47.60;99900.13;5078707;28;20422;-66
2023/09/12 04:08:09;;;;;;;;;;;;;;;25.73;47.42;99900.53;5076334;28;19956;-66
2023/09/12 04:10:35;;;;;;;;;;;;;;;25.55;47.60;99897.59;5074107;28;19963;-66
2023/09/12 04:13:00;;;;;;;;;;;;;;;25.63;47.91;99891.38;5091565;28;19916;-66
2023/09/12 04:15:25;;;;;;;;;;;;;;;25.65;47.73;99899.31;5093335;28;19962;-67
2023/09/12 04:17:50;;;;;;;;;;;;;;;25.59;47.49;99892.28;5093567;28;19995;-65
2023/09/12 04:20:15;;;;;;;;;;;;;;;25.61;47.79;99888.13;5093108;28;20256;-66
2023/09/12 04:22:44;;;;;;;;;;;;;;;25.64;47.81;99893.00;5092359;28;19968;-66
2023/09/12 04:25:09;;;;;;;;;;;;;;;25.61;47.87;99896.38;5092665;28;19961;-66
2023/09/12 04:27:35;;;;;;;;;;;;;;;25.76;47.35;99903.47;5093448;28;19920;-66
2023/09/12 04:30:00;;;;;;;;;;;;;;;25.72;47.48;99891.44;5096465;28;19919;-66
2023/09/12 04:32:25;;;;;;;;;;;;;;;25.62;47.57;99895.25;5096767;28;19912;-66
2023/09/12 04:34:51;;;;;;;;;;;;;;;25.62;47.43;99894.44;5096707;28;19912;-67
2023/09/12 04:37:16;;;;;;;;;;;;;;;25.55;47.96;99899.53;5096442;28;19951;-66
2023/09/12 04:39:42;;;;;;;;;;;;;;;25.49;48.03;99893.34;5096679;28;20010;-66
2023/09/12 04:42:07;;;;;;;;;;;;;;;25.52;47.62;99897.38;5096130;28;19966;-66
2023/09/12 04:44:35;;;;;;;;;;;;;;;25.52;47.78;99889.13;5096234;28;19936;-67
2023/09/12 04:47:01;;;;;;;;;;;;;;;25.56;47.49;99888.22;5096205;28;19926;-67
2023/09/12 04:49:27;;;;;;;;;;;;;;;25.58;47.86;99885.19;5095834;28;19995;-67
2023/09/12 04:51:52;;;;;;;;;;;;;;;25.56;47.53;99881.94;5095738;28;19912;-67
2023/09/12 04:54:17;;;;;;;;;;;;;;;25.59;47.67;99889.53;5095070;28;19912;-67
2023/09/12 04:56:42;;;;;;;;;;;;;;;25.50;47.97;99894.94;5113265;28;19935;-67
2023/09/12 04:59:08;;;;;;;;;;;;;;;25.60;47.79;99885.69;5116468;28;20010;-67
2023/09/12 05:01:33;;;;;;;;;;;;;;;25.57;47.52;99889.84;5112869;28;20311;-67
2023/09/12 05:03:58;;;;;;;;;;;;;;;25.51;48.04;99885.59;5095558;28;20007;-67
2023/09/12 05:06:24;;;;;;;;;;;;;;;25.55;47.79;99883.84;5096020;28;19920;-67
2023/09/12 05:08:49;;;;;;;;;;;;;;;25.55;47.95;99891.28;5095661;28;20348;-66
2023/09/12 05:11:15;;;;;;;;;;;;;;;25.42;47.97;99896.47;5095839;28;19924;-66
2023/09/12 05:13:41;;;;;;;;;;;;;;;25.36;48.27;99896.91;5095827;28;19923;-66
2023/09/12 05:16:06;;;;;;;;;;;;;;;25.37;48.22;99898.53;5094467;28;19919;-66
2023/09/12 05:18:31;;;;;;;;;;;;;;;25.42;48.33;99899.22;5095434;28;19912;-66
2023/09/12 05:20:56;;;;;;;;;;;;;;;25.36;48.51;99894.16;5095702;28;19912;-66
2023/09/12 05:23:22;;;;;;;;;;;;;;;25.41;48.42;99896.81;5095656;28;19913;-66
2023/09/12 05:25:47;;;;;;;;;;;;;;;25.34;48.80;99902.72;5095061;28;20284;-66
2023/09/12 05:28:15;;;;;;;;;;;;;;;25.39;48.92;99902.63;5095179;28;19912;-66
2023/09/12 05:30:41;;;;;;;;;;;;;;;25.46;49.03;99894.78;5095272;28;19920;-66
2023/09/12 05:33:06;;;;;;;;;;;;;;;25.44;48.96;99896.97;5095313;28;19961;-66
2023/09/12 05:35:32;;;;;;;;;;;;;;;25.35;48.92;99901.56;5095104;28;19919;-66
2023/09/12 05:37:57;;;;;;;;;;;;;;;25.32;49.13;99906.91;5093750;28;20007;-66
2023/09/12 05:40:22;;;;;;;;;;;;;;;25.35;49.43;99906.25;5095301;28;19912;-66
2023/09/12 05:42:47;;;;;;;;;;;;;;;25.43;49.25;99898.13;5095093;28;19912;-66
2023/09/12 05:45:13;;;;;;;;;;;;;;;25.49;48.82;99896.88;5095038;28;19973;-66
2023/09/12 05:47:38;;;;;;;;;;;;;;;25.58;48.72;99905.22;5094948;28;19924;-66
2023/09/12 05:50:06;;;;;;;;;;;;;;;25.57;48.58;99913.78;5094751;28;19916;-65
2023/09/12 05:52:32;;;;;;;;;;;;;;;25.62;48.49;99908.19;5094900;28;19995;-65
2023/09/12 05:54:57;;;;;;;;;;;;;;;25.53;48.59;99915.53;5094136;28;20409;-65
2023/09/12 05:57:23;;;;;;;;;;;;;;;25.55;48.64;99922.34;5095010;28;20381;-65
2023/09/12 05:59:48;;;;;;;;;;;;;;;25.61;48.81;99917.53;5094033;28;20657;-65
2023/09/12 06:02:14;;;;;;;;;;;;;;;25.49;48.78;99932.63;5074213;28;19923;-65
2023/09/12 06:04:39;;;;;;;;;;;;;;;25.45;49.00;99925.31;5084610;28;20384;-65
2023/09/12 06:07:04;;;;;;;;;;;;;;;25.46;49.00;99932.44;5094787;28;20011;-65
2023/09/12 06:09:30;;;;;;;;;;;;;;;25.30;49.48;99940.19;5094538;28;19958;-65
2023/09/12 06:11:55;;;;;;;;;;;;;;;25.39;49.79;99934.78;5094767;28;19916;-65
2023/09/12 06:14:20;;;;;;;;;;;;;;;25.41;49.71;99935.31;5094959;28;20269;-65
2023/09/12 06:16:46;;;;;;;;;;;;;;;25.50;49.90;99930.69;5094494;28;19936;-65
2023/09/12 06:19:11;;;;;;;;;;;;;;;25.49;50.27;99937.31;5094207;28;19916;-65
2023/09/12 06:21:36;;;;;;;;;;;;;;;25.43;50.62;99944.06;5094378;28;19919;-65
2023/09/12 06:24:10;;;;;;;;;;;;;;;25.22;51.15;99949.94;5094589;28;19955;-66
2023/09/12 06:26:35;;;;;;;;;;;;;;;25.02;51.68;99955.81;5094230;28;20000;-66
2023/09/12 06:29:04;;;;;;;;;;;;;;;25.04;51.42;99948.06;5094415;28;19920;-66
2023/09/12 06:31:29;;;;;;;;;;;;;;;25.03;51.89;99951.94;5094164;28;19912;-66
2023/09/12 06:33:54;;;;;;;;;;;;;;;25.03;51.93;99954.66;5094112;28;20435;-66
2023/09/12 06:36:20;;;;;;;;;;;;;;;25.03;51.58;99954.66;5093959;28;19912;-66
2023/09/12 06:38:45;;;;;;;;;;;;;;;25.04;51.00;99959.06;5094185;28;19951;-66
2023/09/12 06:41:10;;;;;;;;;;;;;;;24.93;50.38;99958.44;5094323;28;19916;-66
2023/09/12 06:43:35;;;;;;;;;;;;;;;24.89;50.67;99949.97;5094065;28;20272;-66
2023/09/12 06:46:01;;;;;;;;;;;;;;;24.84;49.85;99952.00;5093766;28;19982;-65
2023/09/12 06:48:26;;;;;;;;;;;;;;;24.81;49.06;99955.34;5094050;28;19912;-66
2023/09/12 06:50:52;;;;;;;;;;;;;;;24.72;48.88;99957.94;5093090;28;19954;-66
2023/09/12 06:53:17;;;;;;;;;;;;;;;24.70;48.72;99962.94;5092646;28;19934;-66
2023/09/12 06:55:42;;;;;;;;;;;;;;;24.56;47.88;99965.66;5093030;28;19912;-66
2023/09/12 06:58:07;;;;;;;;;;;;;;;24.74;48.93;99969.47;5075777;28;19999;-65
2023/09/12 07:00:33;;;;;;;;;;;;;;;24.82;47.85;99965.22;5080612;28;20412;-64
2023/09/12 07:02:58;;;;;;;;;;;;;;;24.90;48.49;99973.56;5093558;28;19912;-65
2023/09/12 07:05:24;;;;;;;;;;;;;;;24.90;48.14;99968.06;5093327;28;19928;-65
2023/09/12 07:07:49;;;;;;;;;;;;;;;24.54;49.03;99971.44;5093844;28;19920;-64
2023/09/12 07:10:14;;;;;;;;;;;;;;;24.80;48.68;99971.00;5093415;28;19916;-65
2023/09/12 07:12:39;;;;;;;;;;;;;;;24.95;47.92;99980.91;5093229;28;19912;-65
2023/09/12 07:15:05;;;;;;;;;;;;;;;25.06;48.21;99971.38;5093525;28;20014;-65
2023/09/12 07:17:30;;;;;;;;;;;;;;;25.14;47.57;99972.59;5093393;28;19935;-65
2023/09/12 07:19:55;;;;;;;;;;;;;;;25.16;47.68;99969.56;5093227;28;19912;-65
2023/09/12 07:22:21;;;;;;;;;;;;;;;25.11;46.57;99970.44;5093102;28;19955;-64
2023/09/12 07:24:46;;;;;;;;;;;;;;;25.18;46.92;99968.13;5093473;28;19912;-64
2023/09/12 07:27:11;;;;;;;;;;;;;;;25.30;47.27;99971.22;5091855;28;20393;-64
2023/09/12 07:29:37;;;;;;;;;;;;;;;25.52;46.40;99964.22;5093245;28;19978;-64
2023/09/12 07:32:03;;;;;;;;;;;;;;;25.69;46.64;99961.66;5093708;28;20299;-64
2023/09/12 07:34:29;;;;;;;;;;;;;;;25.91;46.24;99967.50;5093467;28;19919;-64
2023/09/12 07:36:54;;;;;;;;;;;;;;;26.00;46.53;99961.03;5093517;28;19966;-64
2023/09/12 07:39:19;;;;;;;;;;;;;;;26.13;46.13;99969.53;5091992;28;20452;-65
2023/09/12 07:41:46;;;;;;;;;;;;;;;26.00;45.19;99977.53;5092958;28;19920;-64
2023/09/12 07:44:11;;;;;;;;;;;;;;;26.06;46.23;99984.53;5093184;28;19912;-65
2023/09/12 07:46:37;;;;;;;;;;;;;;;26.13;44.85;100003.38;5092991;28;20314;-65
2023/09/12 07:49:02;;;;;;;;;;;;;;;26.11;44.65;99999.31;5093109;28;19916;-65
2023/09/12 07:51:28;;;;;;;;;;;;;;;26.10;45.15;99992.19;5093249;28;19912;-65
2023/09/12 07:53:53;;;;;;;;;;;;;;;26.08;43.89;100006.25;5092140;28;20392;-65
2023/09/12 07:56:18;;;;;;;;;;;;;;;26.06;41.92;100014.00;5103507;28;19916;-65
2023/09/12 07:58:43;;;;;;;;;;;;;;;26.08;43.75;100015.31;5092835;28;19999;-65
2023/09/12 08:01:09;;;;;;;;;;;;;;;26.13;43.73;100021.84;5093130;28;19977;-65
2023/09/12 08:03:36;;;;;;;;;;;;;;;26.08;42.64;100020.03;5097038;28;19916;-65
2023/09/12 08:06:01;;;;;;;;;;;;;;;26.07;43.33;100016.44;5096956;28;20345;-65
2023/09/12 08:08:26;;;;;;;;;;;;;;;26.07;43.37;100021.94;5097143;28;20021;-65
2023/09/12 08:10:52;;;;;;;;;;;;;;;26.14;43.27;100027.03;5096958;28;20295;-64
2023/09/12 08:13:17;;;;;;;;;;;;;;;26.13;43.25;100025.38;5096894;28;19912;-65
2023/09/12 08:15:42;;;;;;;;;;;;;;;25.96;41.75;100028.78;5097052;28;20002;-65
2023/09/12 08:18:07;;;;;;;;;;;;;;;26.00;41.61;100032.56;5096757;28;19912;-64
2023/09/12 08:20:33;;;;;;;;;;;;;;;26.01;42.01;100033.38;5096962;28;19912;-64
2023/09/12 08:22:58;;;;;;;;;;;;;;;26.04;42.67;100039.09;5096487;28;19912;-65
2023/09/12 08:25:24;;;;;;;;;;;;;;;26.08;41.93;100047.53;5096813;28;19935;-65
2023/09/12 08:27:49;;;;;;;;;;;;;;;26.16;41.28;100044.03;5096464;28;19916;-64
2023/09/12 08:30:15;;;;;;;;;;;;;;;26.16;41.79;100041.28;5097051;28;20245;-64
2023/09/12 08:32:43;;;;;;;;;;;;;;;26.20;41.10;100044.25;5082417;28;20011;-64
2023/09/12 08:35:09;;;;;;;;;;;;;;;26.16;41.09;100052.31;5076465;28;19999;-64
2023/09/12 08:37:34;;;;;;;;;;;;;;;26.03;40.31;100073.22;5088699;28;19943;-64
2023/09/12 08:40:01;;;;;;;;;;;;;;;25.93;38.92;100078.09;5096435;28;19912;-64
2023/09/12 08:42:27;;;;;;;;;;;;;;;25.65;40.47;100070.66;5096418;28;20330;-65
2023/09/12 08:44:53;;;;;;;;;;;;;;;25.58;39.82;100075.72;5096282;28;20045;-65
2023/09/12 08:47:19;;;;;;;;;;;;;;;25.58;40.13;100080.44;5096190;28;20522;-65
2023/09/12 08:49:44;;;;;;;;;;;;;;;25.72;39.75;100077.66;5095614;28;20740;-65
2023/09/12 08:52:09;;;;;;;;;;;;;;;25.78;39.85;100074.53;5095886;28;20004;-64
2023/09/12 08:54:35;;;;;;;;;;;;;;;25.77;38.59;100083.09;5074649;28;19920;-65
2023/09/12 08:57:02;;;;;;;;;;;;;;;25.81;37.82;100067.59;5115076;28;19951;-65
2023/09/12 08:59:28;;;;;;;;;;;;;;;25.91;37.17;100064.66;5116274;28;20375;-65
2023/09/12 09:01:55;;;;;;;;;;;;;;;26.11;38.91;100066.16;5109776;28;19912;-65
2023/09/12 09:04:21;;;;;;;;;;;;;;;26.23;37.34;100068.41;5095635;28;19920;-65
2023/09/12 09:06:47;;;;;;;;;;;;;;;26.23;35.68;100065.66;5095967;28;19942;-65
2023/09/12 09:09:13;;;;;;;;;;;;;;;26.44;38.08;100069.56;5095818;28;20377;-65
2023/09/12 09:11:40;;;;;;;;;;;;;;;26.60;37.46;100078.34;5095908;28;20319;-65
2023/09/12 09:14:05;;;;;;;;;;;;;;;26.62;37.32;100073.34;5094808;28;20006;-65
2023/09/12 09:16:30;;;;;;;;;;;;;;;26.77;38.18;100076.88;5095518;28;19919;-65
2023/09/12 09:18:57;;;;;;;;;;;;;;;26.36;33.25;100083.28;5095688;28;20007;-65
2023/09/12 09:21:25;;;;;;;;;;;;;;;25.97;32.47;100093.72;5095443;28;20238;-65
2023/09/12 09:23:51;;;;;;;;;;;;;;;26.11;36.15;100099.19;5094303;28;20284;-65
2023/09/12 09:26:16;;;;;;;;;;;;;;;26.25;35.39;100110.22;5095191;28;19932;-65
2023/09/12 09:28:41;;;;;;;;;;;;;;;26.05;32.71;100106.75;5095156;28;19995;-65
2023/09/12 09:31:13;;;;;;;;;;;;;;;26.17;35.09;100099.91;5095461;28;19912;-65
2023/09/12 09:33:48;;;;;;;;;;;;;;;26.20;30.90;100099.31;5095314;28;20253;-65
2023/09/12 09:36:14;;;;;;;;;;;;;;;26.33;32.89;100100.41;5095273;28;19912;-65
2023/09/12 09:38:40;;;;;;;;;;;;;;;26.49;33.27;100107.22;5095140;28;20009;-64
2023/09/12 09:41:06;;;;;;;;;;;;;;;26.50;32.39;100116.28;5095328;28;19957;-65
2023/09/12 09:43:31;;;;;;;;;;;;;;;26.32;33.28;100116.13;5095128;28;19919;-66
2023/09/12 09:45:57;;;;;;;;;;;;;;;26.41;33.04;100119.78;5094864;28;20386;-65
2023/09/12 09:48:24;;;;;;;;;;;;;;;26.55;34.07;100122.50;5095111;28;19919;-65
2023/09/12 09:50:50;;;;;;;;;;;;;;;26.60;32.86;100113.34;5093526;28;19924;-66
2023/09/12 09:53:15;;;;;;;;;;;;;;;26.65;32.93;100114.03;5093591;28;19916;-65
2023/09/12 09:55:42;;;;;;;;;;;;;;;26.65;33.00;100121.47;5102428;28;19912;-65
2023/09/12 09:58:07;;;;;;;;;;;;;;;26.64;33.89;100117.91;5115073;28;19919;-64
2023/09/12 10:00:33;;;;;;;;;;;;;;;26.65;33.34;100124.22;5105332;28;19912;-65
2023/09/12 10:02:59;;;;;;;;;;;;;;;26.81;32.99;100128.28;5079235;28;20391;-66
2023/09/12 10:05:24;;;;;;;;;;;;;;;26.81;31.13;100135.72;5074559;28;20422;-65
2023/09/12 10:07:50;;;;;;;;;;;;;;;26.90;33.57;100130.31;5074605;28;19967;-65
2023/09/12 10:10:19;;;;;;;;;;;;;;;27.06;33.15;100131.56;5074545;28;19917;-64
2023/09/12 10:12:48;;;;;;;;;;;;;;;26.97;32.75;100125.97;5074680;28;19919;-65
2023/09/12 10:15:15;;;;;;;;;;;;;;;26.87;31.94;100133.66;5075339;28;20376;-66
2023/09/12 10:17:42;;;;;;;;;;;;;;;26.73;29.31;100137.28;5074469;28;20445;-64
2023/09/12 10:20:31;;;;;;;;;;;;;;;26.69;30.00;100138.19;5074515;28;19912;-65
2023/09/12 10:23:03;;;;;;;;;;;;;;;26.64;30.38;100150.97;5070702;28;19917;-65
2023/09/12 10:25:29;;;;;;;;;;;;;;;26.58;29.68;100130.16;5072972;28;19912;-65
2023/09/12 10:27:54;;;;;;;;;;;;;;;26.70;31.06;100135.13;5091792;28;19912;-65
2023/09/12 10:30:21;;;;;;;;;;;;;;;26.72;29.73;100127.38;5094321;28;20353;-64
2023/09/12 10:32:47;;;;;;;;;;;;;;;26.75;32.38;100134.22;5094262;28;19995;-64
2023/09/12 10:35:13;;;;;;;;;;;;;;;26.90;32.53;100130.31;5094091;28;20398;-64
2023/09/12 10:37:41;;;;;;;;;;;;;;;26.89;33.02;100136.94;5093758;28;19923;-64
2023/09/12 10:40:08;;;;;;;;;;;;;;;26.64;30.12;100136.38;5094204;28;20360;-65
2023/09/12 10:42:34;;;;;;;;;;;;;;;26.44;32.04;100140.38;5093695;28;20009;-65
2023/09/12 10:45:00;;;;;;;;;;;;;;;26.44;32.40;100135.66;5093967;28;19991;-64
2023/09/12 10:47:26;;;;;;;;;;;;;;;26.49;32.35;100137.50;5093675;28;19920;-64
2023/09/12 10:49:51;;;;;;;;;;;;;;;26.50;29.48;100132.81;5094291;28;19998;-65
2023/09/12 10:52:26;;;;;;;;;;;;;;;26.44;30.34;100140.38;5093810;28;20341;-64
2023/09/12 10:54:52;;;;;;;;;;;;;;;26.65;29.92;100138.00;5094761;28;19959;-65
2023/09/12 10:57:17;;;;;;;;;;;;;;;26.77;31.44;100135.53;5101300;28;19962;-65
2023/09/12 11:00:02;;;;;;;;;;;;;;;26.91;30.26;100145.69;5093532;28;19912;-64
2023/09/12 11:02:31;;;;;;;;;;;;;;;27.00;28.81;100144.63;5082656;28;19912;-64
2023/09/12 11:04:57;;;;;;;;;;;;;;;27.01;30.47;100142.72;5073335;28;20282;-66
2023/09/12 11:07:37;;;;;;;;;;;;;;;26.94;29.36;100142.31;5073207;28;19916;-64
2023/09/12 11:10:16;;;;;;;;;;;;;;;27.06;28.38;100142.59;5073406;28;19935;-65
2023/09/12 11:12:42;;;;;;;;;;;;;;;27.20;27.86;100146.09;5073530;28;19962;-65
2023/09/12 11:15:11;;;;;;;;;;;;;;;27.15;30.00;100143.44;5073587;28;19946;-66
2023/09/12 11:17:37;;;;;;;;;;;;;;;27.34;31.14;100145.22;5073321;28;19956;-66
2023/09/12 11:20:09;;;;;;;;;;;;;;;27.61;29.80;100147.84;5073432;28;20030;-65
2023/09/12 11:22:36;;;;;;;;;;;;;;;27.72;28.48;100155.88;5073144;28;19913;-65
2023/09/12 11:25:02;;;;;;;;;;;;;;;27.78;29.68;100151.81;5074932;28;19912;-65
2023/09/12 11:27:32;;;;;;;;;;;;;;;27.84;28.84;100158.03;5093298;28;19963;-64
2023/09/12 11:30:06;;;;;;;;;;;;;;;27.97;29.48;100146.94;5093241;28;20288;-64
2023/09/12 11:32:32;;;;;;;;;;;;;;;28.21;30.25;100145.69;5093375;28;20261;-65
2023/09/12 11:34:58;;;;;;;;;;;;;;;28.34;26.33;100164.13;5093298;28;19912;-64
2023/09/12 11:37:28;;;;;;;;;;;;;;;28.30;28.77;100157.56;5096033;28;19912;-64
2023/09/12 11:39:54;;;;;;;;;;;;;;;28.46;25.65;100168.19;5097400;28;19912;-65
2023/09/12 11:42:21;;;;;;;;;;;;;;;28.44;27.76;100146.41;5097482;28;19923;-66
2023/09/12 11:44:46;;;;;;;;;;;;;;;28.80;29.51;100153.63;5097527;28;20049;-66
2023/09/12 11:47:12;;;;;;;;;;;;;;;29.01;28.61;100162.13;5097245;28;20027;-65
2023/09/12 11:49:41;;;;;;;;;;;;;;;29.12;27.98;100157.88;5097302;28;19978;-65
2023/09/12 11:52:12;;;;;;;;;;;;;;;29.37;29.42;100172.03;5097124;28;19977;-65
2023/09/12 11:54:37;;;;;;;;;;;;;;;29.52;28.04;100174.28;5096554;28;19919;-66
2023/09/12 11:57:03;;;;;;;;;;;;;;;29.66;29.09;100171.34;5117682;28;19912;-66
2023/09/12 11:59:31;;;;;;;;;;;;;;;29.78;25.57;100169.88;5117702;28;19912;-66
2023/09/12 12:01:57;;;;;;;;;;;;;;;29.75;27.13;100160.25;5109424;28;19912;-65
2023/09/12 12:04:23;;;;;;;;;;;;;;;29.80;24.24;100171.16;5096802;28;20274;-65
2023/09/12 12:06:50;;;;;;;;;;;;;;;29.74;23.68;100180.78;5097096;28;19965;-66
2023/09/12 12:09:18;;;;;;;;;;;;;;;29.73;24.47;100176.34;5096986;28;20015;-66
2023/09/12 12:11:43;;;;;;;;;;;;;;;29.64;22.47;100175.56;5096976;28;20292;-65
2023/09/12 12:14:13;;;;;;;;;;;;;;;29.87;26.80;100165.13;5097234;28;19912;-65
2023/09/12 12:16:39;;;;;;;;;;;;;;;30.05;23.38;100172.22;5096632;28;20002;-65
2023/09/12 12:19:04;;;;;;;;;;;;;;;30.15;22.35;100165.50;5096817;28;20007;-65
2023/09/12 12:21:31;;;;;;;;;;;;;;;30.19;24.89;100174.75;5096444;28;19911;-65
2023/09/12 12:24:03;;;;;;;;;;;;;;;30.23;22.93;100166.59;5096485;28;19920;-65
2023/09/12 12:26:29;;;;;;;;;;;;;;;30.45;26.29;100173.84;5096589;28;19963;-65
2023/09/12 12:28:55;;;;;;;;;;;;;;;30.53;25.93;100164.66;5096496;28;20384;-65
2023/09/12 12:31:21;;;;;;;;;;;;;;;30.65;24.42;100172.25;5096524;28;19912;-65
2023/09/12 12:33:53;;;;;;;;;;;;;;;30.87;23.47;100163.59;5096510;28;19912;-65
2023/09/12 12:36:18;;;;;;;;;;;;;;;31.16;25.90;100153.59;5096419;28;19961;-65